sensor_id;sensor_type;location;lat;lon;timestamp;P1;durP1;ratioP1;P2;durP2;ratioP2
2111;SDS011;1062;52.538;13.400;2023-08-20T00:01:05;14.97;;;13.53;;
2111;SDS011;1062;52.538;13.400;2023-08-20T00:03:32;14.63;;;13.33;;
2111;SDS011;1062;52.538;13.400;2023-08-20T00:05:59;13.67;;;12.57;;
2111;SDS011;1062;52.538;13.400;2023-08-20T00:08:24;14.77;;;13.17;;
2111;SDS011;1062;52.538;13.400;2023-08-20T00:10:50;15.67;;;14.37;;
2111;SDS011;1062;52.538;13.400;2023-08-20T00:13:16;15.07;;;13.67;;
2111;SDS011;1062;52.538;13.400;2023-08-20T00:15:41;13.17;;;12.03;;
2111;SDS011;1062;52.538;13.400;2023-08-20T00:18:08;13.87;;;12.60;;
2111;SDS011;1062;52.538;13.400;2023-08-20T00:20:34;14.50;;;13.20;;
2111;SDS011;1062;52.538;13.400;2023-08-20T00:23:00;14.80;;;13.60;;
2111;SDS011;1062;52.538;13.400;2023-08-20T00:25:26;14.07;;;12.60;;
2111;SDS011;1062;52.538;13.400;2023-08-20T00:27:51;14.90;;;13.60;;
2111;SDS011;1062;52.538;13.400;2023-08-20T00:30:17;14.20;;;13.00;;
2111;SDS011;1062;52.538;13.400;2023-08-20T00:32:43;13.17;;;12.07;;
2111;SDS011;1062;52.538;13.400;2023-08-20T00:35:08;13.10;;;12.00;;
2111;SDS011;1062;52.538;13.400;2023-08-20T00:37:34;14.10;;;12.90;;
2111;SDS011;1062;52.538;13.400;2023-08-20T00:40:00;13.50;;;12.40;;
2111;SDS011;1062;52.538;13.400;2023-08-20T00:42:26;12.73;;;11.73;;
2111;SDS011;1062;52.538;13.400;2023-08-20T00:44:52;13.67;;;12.43;;
2111;SDS011;1062;52.538;13.400;2023-08-20T00:47:18;11.53;;;10.53;;
2111;SDS011;1062;52.538;13.400;2023-08-20T00:49:44;17.33;;;14.00;;
2111;SDS011;1062;52.538;13.400;2023-08-20T00:52:11;12.53;;;11.43;;
2111;SDS011;1062;52.538;13.400;2023-08-20T00:54:39;12.63;;;11.53;;
2111;SDS011;1062;52.538;13.400;2023-08-20T00:57:05;13.07;;;11.90;;
2111;SDS011;1062;52.538;13.400;2023-08-20T00:59:32;13.13;;;12.03;;
2111;SDS011;1062;52.538;13.400;2023-08-20T01:01:58;14.13;;;13.00;;
2111;SDS011;1062;52.538;13.400;2023-08-20T01:04:25;12.97;;;11.87;;
2111;SDS011;1062;52.538;13.400;2023-08-20T01:06:53;13.13;;;11.93;;
2111;SDS011;1062;52.538;13.400;2023-08-20T01:10:02;12.83;;;11.73;;
2111;SDS011;1062;52.538;13.400;2023-08-20T01:12:22;16.70;;;13.20;;
2111;SDS011;1062;52.538;13.400;2023-08-20T01:14:49;13.10;;;11.90;;
2111;SDS011;1062;52.538;13.400;2023-08-20T01:17:15;14.50;;;13.00;;
2111;SDS011;1062;52.538;13.400;2023-08-20T01:19:40;13.43;;;12.33;;
2111;SDS011;1062;52.538;13.400;2023-08-20T01:24:43;13.63;;;12.30;;
2111;SDS011;1062;52.538;13.400;2023-08-20T01:27:38;14.30;;;12.47;;
2111;SDS011;1062;52.538;13.400;2023-08-20T01:30:15;12.17;;;11.17;;
2111;SDS011;1062;52.538;13.400;2023-08-20T01:32:41;13.30;;;11.93;;
2111;SDS011;1062;52.538;13.400;2023-08-20T01:35:14;12.70;;;11.50;;
2111;SDS011;1062;52.538;13.400;2023-08-20T01:37:41;14.13;;;12.93;;
2111;SDS011;1062;52.538;13.400;2023-08-20T01:40:07;13.50;;;12.40;;
2111;SDS011;1062;52.538;13.400;2023-08-20T01:42:35;14.10;;;12.80;;
2111;SDS011;1062;52.538;13.400;2023-08-20T01:45:02;14.07;;;12.67;;
2111;SDS011;1062;52.538;13.400;2023-08-20T01:47:29;12.00;;;10.90;;
2111;SDS011;1062;52.538;13.400;2023-08-20T01:49:54;13.77;;;12.30;;
2111;SDS011;1062;52.538;13.400;2023-08-20T01:52:20;14.20;;;13.10;;
2111;SDS011;1062;52.538;13.400;2023-08-20T01:54:45;13.53;;;12.10;;
2111;SDS011;1062;52.538;13.400;2023-08-20T01:57:12;13.00;;;11.90;;
2111;SDS011;1062;52.538;13.400;2023-08-20T01:59:38;13.90;;;12.57;;
2111;SDS011;1062;52.538;13.400;2023-08-20T02:02:04;13.70;;;12.50;;
2111;SDS011;1062;52.538;13.400;2023-08-20T02:04:31;13.53;;;12.07;;
2111;SDS011;1062;52.538;13.400;2023-08-20T02:06:57;14.07;;;12.67;;
2111;SDS011;1062;52.538;13.400;2023-08-20T02:09:22;14.03;;;12.83;;
2111;SDS011;1062;52.538;13.400;2023-08-20T02:11:49;13.90;;;12.60;;
2111;SDS011;1062;52.538;13.400;2023-08-20T02:14:15;12.33;;;11.30;;
2111;SDS011;1062;52.538;13.400;2023-08-20T02:16:40;12.17;;;11.07;;
2111;SDS011;1062;52.538;13.400;2023-08-20T02:19:06;13.87;;;12.63;;
2111;SDS011;1062;52.538;13.400;2023-08-20T02:21:32;13.63;;;12.47;;
2111;SDS011;1062;52.538;13.400;2023-08-20T02:23:58;14.13;;;12.73;;
2111;SDS011;1062;52.538;13.400;2023-08-20T02:26:23;11.23;;;10.13;;
2111;SDS011;1062;52.538;13.400;2023-08-20T02:28:49;12.93;;;11.73;;
2111;SDS011;1062;52.538;13.400;2023-08-20T02:31:15;12.77;;;11.57;;
2111;SDS011;1062;52.538;13.400;2023-08-20T02:33:40;12.13;;;11.20;;
2111;SDS011;1062;52.538;13.400;2023-08-20T02:36:06;13.50;;;12.10;;
2111;SDS011;1062;52.538;13.400;2023-08-20T02:38:31;13.13;;;11.93;;
2111;SDS011;1062;52.538;13.400;2023-08-20T02:40:57;13.87;;;12.57;;
2111;SDS011;1062;52.538;13.400;2023-08-20T02:43:23;13.53;;;12.23;;
2111;SDS011;1062;52.538;13.400;2023-08-20T02:45:48;14.00;;;12.70;;
2111;SDS011;1062;52.538;13.400;2023-08-20T02:48:14;15.03;;;13.60;;
2111;SDS011;1062;52.538;13.400;2023-08-20T02:50:40;13.10;;;12.00;;
2111;SDS011;1062;52.538;13.400;2023-08-20T02:53:06;13.07;;;12.00;;
2111;SDS011;1062;52.538;13.400;2023-08-20T02:55:32;15.20;;;13.90;;
2111;SDS011;1062;52.538;13.400;2023-08-20T02:57:58;15.07;;;13.40;;
2111;SDS011;1062;52.538;13.400;2023-08-20T03:00:24;13.33;;;12.23;;
2111;SDS011;1062;52.538;13.400;2023-08-20T03:02:49;13.90;;;12.60;;
2111;SDS011;1062;52.538;13.400;2023-08-20T03:05:15;13.67;;;12.37;;
2111;SDS011;1062;52.538;13.400;2023-08-20T03:07:40;12.90;;;11.70;;
2111;SDS011;1062;52.538;13.400;2023-08-20T03:10:06;14.67;;;13.27;;
2111;SDS011;1062;52.538;13.400;2023-08-20T03:12:32;14.23;;;12.80;;
2111;SDS011;1062;52.538;13.400;2023-08-20T03:14:58;13.07;;;11.67;;
2111;SDS011;1062;52.538;13.400;2023-08-20T03:17:24;13.93;;;12.67;;
2111;SDS011;1062;52.538;13.400;2023-08-20T03:19:57;13.67;;;12.17;;
2111;SDS011;1062;52.538;13.400;2023-08-20T03:22:24;14.23;;;12.97;;
2111;SDS011;1062;52.538;13.400;2023-08-20T03:24:50;13.93;;;12.50;;
2111;SDS011;1062;52.538;13.400;2023-08-20T03:27:17;17.67;;;13.20;;
2111;SDS011;1062;52.538;13.400;2023-08-20T03:29:42;12.87;;;11.67;;
2111;SDS011;1062;52.538;13.400;2023-08-20T03:32:08;20.17;;;12.30;;
2111;SDS011;1062;52.538;13.400;2023-08-20T03:34:34;13.17;;;11.83;;
2111;SDS011;1062;52.538;13.400;2023-08-20T03:37:00;13.00;;;11.57;;
2111;SDS011;1062;52.538;13.400;2023-08-20T03:39:26;12.70;;;11.47;;
2111;SDS011;1062;52.538;13.400;2023-08-20T03:41:51;13.90;;;12.60;;
2111;SDS011;1062;52.538;13.400;2023-08-20T03:44:17;12.83;;;11.63;;
2111;SDS011;1062;52.538;13.400;2023-08-20T03:46:43;12.80;;;11.60;;
2111;SDS011;1062;52.538;13.400;2023-08-20T03:49:09;14.10;;;12.23;;
2111;SDS011;1062;52.538;13.400;2023-08-20T03:51:35;14.10;;;12.37;;
2111;SDS011;1062;52.538;13.400;2023-08-20T03:54:00;12.93;;;11.73;;
2111;SDS011;1062;52.538;13.400;2023-08-20T03:56:26;13.00;;;11.80;;
2111;SDS011;1062;52.538;13.400;2023-08-20T03:58:52;13.60;;;12.40;;
2111;SDS011;1062;52.538;13.400;2023-08-20T04:01:18;13.47;;;12.07;;
2111;SDS011;1062;52.538;13.400;2023-08-20T04:03:45;12.77;;;11.63;;
2111;SDS011;1062;52.538;13.400;2023-08-20T04:06:11;14.57;;;13.17;;
2111;SDS011;1062;52.538;13.400;2023-08-20T04:08:36;13.20;;;11.93;;
2111;SDS011;1062;52.538;13.400;2023-08-20T04:11:02;14.47;;;13.07;;
2111;SDS011;1062;52.538;13.400;2023-08-20T04:13:28;13.27;;;12.13;;
2111;SDS011;1062;52.538;13.400;2023-08-20T04:15:56;13.67;;;12.23;;
2111;SDS011;1062;52.538;13.400;2023-08-20T04:18:22;12.40;;;11.30;;
2111;SDS011;1062;52.538;13.400;2023-08-20T04:20:50;13.30;;;12.20;;
2111;SDS011;1062;52.538;13.400;2023-08-20T04:23:16;13.47;;;12.17;;
2111;SDS011;1062;52.538;13.400;2023-08-20T04:25:42;14.10;;;12.70;;
2111;SDS011;1062;52.538;13.400;2023-08-20T04:28:07;13.97;;;12.67;;
2111;SDS011;1062;52.538;13.400;2023-08-20T04:30:34;14.23;;;12.93;;
2111;SDS011;1062;52.538;13.400;2023-08-20T04:33:00;14.33;;;12.83;;
2111;SDS011;1062;52.538;13.400;2023-08-20T04:35:26;14.53;;;13.03;;
2111;SDS011;1062;52.538;13.400;2023-08-20T04:37:52;15.10;;;13.50;;
2111;SDS011;1062;52.538;13.400;2023-08-20T04:40:17;15.03;;;13.47;;
2111;SDS011;1062;52.538;13.400;2023-08-20T04:42:43;14.80;;;13.37;;
2111;SDS011;1062;52.538;13.400;2023-08-20T04:45:08;14.90;;;13.50;;
2111;SDS011;1062;52.538;13.400;2023-08-20T04:47:35;13.73;;;12.00;;
2111;SDS011;1062;52.538;13.400;2023-08-20T04:50:01;15.10;;;13.70;;
2111;SDS011;1062;52.538;13.400;2023-08-20T04:52:27;14.60;;;13.20;;
2111;SDS011;1062;52.538;13.400;2023-08-20T04:54:53;13.63;;;12.43;;
2111;SDS011;1062;52.538;13.400;2023-08-20T04:57:18;14.50;;;11.97;;
2111;SDS011;1062;52.538;13.400;2023-08-20T04:59:44;15.33;;;14.00;;
2111;SDS011;1062;52.538;13.400;2023-08-20T05:02:13;13.53;;;12.13;;
2111;SDS011;1062;52.538;13.400;2023-08-20T05:04:39;16.60;;;13.70;;
2111;SDS011;1062;52.538;13.400;2023-08-20T05:07:05;13.27;;;11.97;;
2111;SDS011;1062;52.538;13.400;2023-08-20T05:09:31;13.57;;;12.33;;
2111;SDS011;1062;52.538;13.400;2023-08-20T05:11:57;14.07;;;12.80;;
2111;SDS011;1062;52.538;13.400;2023-08-20T05:14:23;15.10;;;13.60;;
2111;SDS011;1062;52.538;13.400;2023-08-20T05:16:48;15.03;;;13.60;;
2111;SDS011;1062;52.538;13.400;2023-08-20T05:19:14;14.33;;;13.13;;
2111;SDS011;1062;52.538;13.400;2023-08-20T05:21:40;15.40;;;14.00;;
2111;SDS011;1062;52.538;13.400;2023-08-20T05:24:05;17.40;;;14.73;;
2111;SDS011;1062;52.538;13.400;2023-08-20T05:26:31;14.10;;;12.70;;
2111;SDS011;1062;52.538;13.400;2023-08-20T05:28:56;15.30;;;13.90;;
2111;SDS011;1062;52.538;13.400;2023-08-20T05:31:22;16.47;;;13.23;;
2111;SDS011;1062;52.538;13.400;2023-08-20T05:33:47;12.63;;;11.43;;
2111;SDS011;1062;52.538;13.400;2023-08-20T05:36:14;15.50;;;13.97;;
2111;SDS011;1062;52.538;13.400;2023-08-20T05:38:39;14.40;;;13.07;;
2111;SDS011;1062;52.538;13.400;2023-08-20T05:41:07;13.30;;;11.80;;
2111;SDS011;1062;52.538;13.400;2023-08-20T05:43:33;15.10;;;11.50;;
2111;SDS011;1062;52.538;13.400;2023-08-20T05:45:58;12.87;;;11.77;;
2111;SDS011;1062;52.538;13.400;2023-08-20T05:48:24;16.70;;;12.63;;
2111;SDS011;1062;52.538;13.400;2023-08-20T05:50:49;13.13;;;12.03;;
2111;SDS011;1062;52.538;13.400;2023-08-20T05:53:15;13.13;;;11.90;;
2111;SDS011;1062;52.538;13.400;2023-08-20T05:55:40;13.03;;;11.70;;
2111;SDS011;1062;52.538;13.400;2023-08-20T05:58:06;12.57;;;11.37;;
2111;SDS011;1062;52.538;13.400;2023-08-20T06:00:33;12.97;;;11.63;;
2111;SDS011;1062;52.538;13.400;2023-08-20T06:02:58;13.33;;;12.00;;
2111;SDS011;1062;52.538;13.400;2023-08-20T06:05:24;12.50;;;11.30;;
2111;SDS011;1062;52.538;13.400;2023-08-20T06:07:49;13.40;;;12.07;;
2111;SDS011;1062;52.538;13.400;2023-08-20T06:10:15;13.37;;;11.63;;
2111;SDS011;1062;52.538;13.400;2023-08-20T06:12:41;12.43;;;11.33;;
2111;SDS011;1062;52.538;13.400;2023-08-20T06:15:07;12.53;;;11.33;;
2111;SDS011;1062;52.538;13.400;2023-08-20T06:17:33;12.37;;;11.20;;
2111;SDS011;1062;52.538;13.400;2023-08-20T06:19:58;12.40;;;11.17;;
2111;SDS011;1062;52.538;13.400;2023-08-20T06:22:24;15.23;;;12.60;;
2111;SDS011;1062;52.538;13.400;2023-08-20T06:24:49;13.03;;;11.93;;
2111;SDS011;1062;52.538;13.400;2023-08-20T06:27:15;12.67;;;11.47;;
2111;SDS011;1062;52.538;13.400;2023-08-20T06:29:41;14.73;;;13.23;;
2111;SDS011;1062;52.538;13.400;2023-08-20T06:32:06;14.50;;;13.10;;
2111;SDS011;1062;52.538;13.400;2023-08-20T06:34:33;11.27;;;10.20;;
2111;SDS011;1062;52.538;13.400;2023-08-20T06:36:59;13.00;;;11.17;;
2111;SDS011;1062;52.538;13.400;2023-08-20T06:39:25;13.53;;;12.33;;
2111;SDS011;1062;52.538;13.400;2023-08-20T06:41:51;13.07;;;11.87;;
2111;SDS011;1062;52.538;13.400;2023-08-20T06:44:16;12.73;;;11.57;;
2111;SDS011;1062;52.538;13.400;2023-08-20T06:46:42;12.67;;;11.43;;
2111;SDS011;1062;52.538;13.400;2023-08-20T06:49:07;13.30;;;12.00;;
2111;SDS011;1062;52.538;13.400;2023-08-20T06:51:33;13.43;;;12.10;;
2111;SDS011;1062;52.538;13.400;2023-08-20T06:53:58;12.40;;;11.30;;
2111;SDS011;1062;52.538;13.400;2023-08-20T06:56:24;14.80;;;13.40;;
2111;SDS011;1062;52.538;13.400;2023-08-20T06:58:50;12.57;;;11.37;;
2111;SDS011;1062;52.538;13.400;2023-08-20T07:01:15;13.00;;;11.73;;
2111;SDS011;1062;52.538;13.400;2023-08-20T07:03:42;15.00;;;13.20;;
2111;SDS011;1062;52.538;13.400;2023-08-20T07:06:08;13.20;;;12.10;;
2111;SDS011;1062;52.538;13.400;2023-08-20T07:08:35;12.40;;;11.30;;
2111;SDS011;1062;52.538;13.400;2023-08-20T07:11:03;13.03;;;11.87;;
2111;SDS011;1062;52.538;13.400;2023-08-20T07:13:29;13.17;;;11.77;;
2111;SDS011;1062;52.538;13.400;2023-08-20T07:15:55;13.90;;;12.47;;
2111;SDS011;1062;52.538;13.400;2023-08-20T07:18:20;13.63;;;12.43;;
2111;SDS011;1062;52.538;13.400;2023-08-20T07:20:46;13.70;;;12.20;;
2111;SDS011;1062;52.538;13.400;2023-08-20T07:23:12;13.93;;;12.63;;
2111;SDS011;1062;52.538;13.400;2023-08-20T07:25:38;14.03;;;12.77;;
2111;SDS011;1062;52.538;13.400;2023-08-20T07:28:05;13.00;;;11.53;;
2111;SDS011;1062;52.538;13.400;2023-08-20T07:30:31;13.33;;;12.03;;
2111;SDS011;1062;52.538;13.400;2023-08-20T07:32:57;15.37;;;13.87;;
2111;SDS011;1062;52.538;13.400;2023-08-20T07:35:23;13.43;;;12.03;;
2111;SDS011;1062;52.538;13.400;2023-08-20T07:37:49;13.13;;;11.83;;
2111;SDS011;1062;52.538;13.400;2023-08-20T07:40:14;14.13;;;12.60;;
2111;SDS011;1062;52.538;13.400;2023-08-20T07:42:40;13.63;;;12.33;;
2111;SDS011;1062;52.538;13.400;2023-08-20T07:45:06;14.53;;;13.23;;
2111;SDS011;1062;52.538;13.400;2023-08-20T07:47:33;12.23;;;11.07;;
2111;SDS011;1062;52.538;13.400;2023-08-20T07:49:59;13.57;;;12.27;;
2111;SDS011;1062;52.538;13.400;2023-08-20T07:52:24;11.97;;;10.87;;
2111;SDS011;1062;52.538;13.400;2023-08-20T07:54:50;13.53;;;12.10;;
2111;SDS011;1062;52.538;13.400;2023-08-20T07:57:16;13.43;;;12.10;;
2111;SDS011;1062;52.538;13.400;2023-08-20T07:59:41;12.20;;;10.90;;
2111;SDS011;1062;52.538;13.400;2023-08-20T08:02:07;12.90;;;11.50;;
2111;SDS011;1062;52.538;13.400;2023-08-20T08:04:35;12.27;;;10.00;;
2111;SDS011;1062;52.538;13.400;2023-08-20T08:07:01;12.70;;;11.40;;
2111;SDS011;1062;52.538;13.400;2023-08-20T08:09:27;13.37;;;11.97;;
2111;SDS011;1062;52.538;13.400;2023-08-20T08:11:55;12.50;;;11.30;;
2111;SDS011;1062;52.538;13.400;2023-08-20T08:14:20;10.87;;;9.97;;
2111;SDS011;1062;52.538;13.400;2023-08-20T08:16:46;11.40;;;10.20;;
2111;SDS011;1062;52.538;13.400;2023-08-20T08:19:12;10.30;;;8.60;;
2111;SDS011;1062;52.538;13.400;2023-08-20T08:21:38;10.03;;;9.13;;
2111;SDS011;1062;52.538;13.400;2023-08-20T08:24:04;10.57;;;9.67;;
2111;SDS011;1062;52.538;13.400;2023-08-20T08:26:30;8.60;;;7.80;;
2111;SDS011;1062;52.538;13.400;2023-08-20T08:28:56;8.97;;;8.17;;
2111;SDS011;1062;52.538;13.400;2023-08-20T08:31:23;8.20;;;7.50;;
2111;SDS011;1062;52.538;13.400;2023-08-20T08:33:48;9.40;;;8.33;;
2111;SDS011;1062;52.538;13.400;2023-08-20T08:36:14;7.93;;;7.33;;
2111;SDS011;1062;52.538;13.400;2023-08-20T08:38:41;7.83;;;7.13;;
2111;SDS011;1062;52.538;13.400;2023-08-20T08:41:09;7.57;;;6.90;;
2111;SDS011;1062;52.538;13.400;2023-08-20T08:43:37;7.20;;;6.47;;
2111;SDS011;1062;52.538;13.400;2023-08-20T08:46:05;7.00;;;6.40;;
2111;SDS011;1062;52.538;13.400;2023-08-20T08:48:33;7.50;;;6.80;;
2111;SDS011;1062;52.538;13.400;2023-08-20T08:51:00;7.73;;;7.07;;
2111;SDS011;1062;52.538;13.400;2023-08-20T08:53:27;6.40;;;5.90;;
2111;SDS011;1062;52.538;13.400;2023-08-20T08:55:53;6.40;;;5.90;;
2111;SDS011;1062;52.538;13.400;2023-08-20T08:58:18;7.67;;;6.87;;
2111;SDS011;1062;52.538;13.400;2023-08-20T09:00:44;6.07;;;5.57;;
2111;SDS011;1062;52.538;13.400;2023-08-20T09:03:10;6.20;;;5.70;;
2111;SDS011;1062;52.538;13.400;2023-08-20T09:05:54;6.80;;;5.60;;
2111;SDS011;1062;52.538;13.400;2023-08-20T09:08:22;5.23;;;4.53;;
2111;SDS011;1062;52.538;13.400;2023-08-20T09:10:52;5.30;;;4.80;;
2111;SDS011;1062;52.538;13.400;2023-08-20T09:13:25;6.00;;;5.50;;
2111;SDS011;1062;52.538;13.400;2023-08-20T09:16:07;5.17;;;4.77;;
2111;SDS011;1062;52.538;13.400;2023-08-20T09:18:38;6.47;;;5.87;;
2111;SDS011;1062;52.538;13.400;2023-08-20T09:21:07;5.80;;;5.33;;
2111;SDS011;1062;52.538;13.400;2023-08-20T09:23:34;6.63;;;6.13;;
2111;SDS011;1062;52.538;13.400;2023-08-20T09:26:01;6.90;;;6.30;;
2111;SDS011;1062;52.538;13.400;2023-08-20T09:28:28;6.40;;;5.80;;
2111;SDS011;1062;52.538;13.400;2023-08-20T09:31:07;5.30;;;4.90;;
2111;SDS011;1062;52.538;13.400;2023-08-20T10:15:01;4.97;;;4.57;;
2111;SDS011;1062;52.538;13.400;2023-08-20T10:18:08;3.90;;;3.60;;
2111;SDS011;1062;52.538;13.400;2023-08-20T10:45:47;2.97;;;2.63;;
2111;SDS011;1062;52.538;13.400;2023-08-20T10:49:15;3.13;;;2.83;;
2111;SDS011;1062;52.538;13.400;2023-08-20T10:52:06;2.47;;;2.33;;
2111;SDS011;1062;52.538;13.400;2023-08-20T10:54:39;3.33;;;2.83;;
2111;SDS011;1062;52.538;13.400;2023-08-20T10:57:13;3.33;;;2.43;;
2111;SDS011;1062;52.538;13.400;2023-08-20T10:59:41;3.63;;;2.77;;
2111;SDS011;1062;52.538;13.400;2023-08-20T11:02:52;2.60;;;2.40;;
2111;SDS011;1062;52.538;13.400;2023-08-20T11:06:26;3.10;;;2.80;;
2111;SDS011;1062;52.538;13.400;2023-08-20T11:09:23;2.90;;;2.60;;
2111;SDS011;1062;52.538;13.400;2023-08-20T11:12:05;2.40;;;2.20;;
2111;SDS011;1062;52.538;13.400;2023-08-20T11:15:02;2.87;;;2.27;;
2111;SDS011;1062;52.538;13.400;2023-08-20T11:17:33;3.00;;;2.80;;
2111;SDS011;1062;52.538;13.400;2023-08-20T11:20:09;2.90;;;2.67;;
2111;SDS011;1062;52.538;13.400;2023-08-20T11:23:20;2.90;;;2.67;;
2111;SDS011;1062;52.538;13.400;2023-08-20T11:25:55;5.60;;;3.00;;
2111;SDS011;1062;52.538;13.400;2023-08-20T11:28:28;2.57;;;2.37;;
2111;SDS011;1062;52.538;13.400;2023-08-20T11:31:14;3.60;;;2.40;;
2111;SDS011;1062;52.538;13.400;2023-08-20T11:33:43;2.50;;;2.30;;
2111;SDS011;1062;52.538;13.400;2023-08-20T11:36:10;2.50;;;2.30;;
2111;SDS011;1062;52.538;13.400;2023-08-20T11:38:36;3.87;;;2.47;;
2111;SDS011;1062;52.538;13.400;2023-08-20T11:41:02;3.47;;;3.20;;
2111;SDS011;1062;52.538;13.400;2023-08-20T11:43:28;2.30;;;2.10;;
2111;SDS011;1062;52.538;13.400;2023-08-20T11:45:54;2.40;;;2.20;;
2111;SDS011;1062;52.538;13.400;2023-08-20T11:48:20;2.50;;;2.30;;
2111;SDS011;1062;52.538;13.400;2023-08-20T11:50:52;2.50;;;2.30;;
2111;SDS011;1062;52.538;13.400;2023-08-20T11:53:23;2.53;;;2.03;;
2111;SDS011;1062;52.538;13.400;2023-08-20T11:55:49;2.50;;;2.30;;
2111;SDS011;1062;52.538;13.400;2023-08-20T11:58:15;2.70;;;2.27;;
2111;SDS011;1062;52.538;13.400;2023-08-20T12:00:47;2.10;;;1.93;;
2111;SDS011;1062;52.538;13.400;2023-08-20T12:03:14;2.80;;;2.43;;
2111;SDS011;1062;52.538;13.400;2023-08-20T12:05:43;2.13;;;1.93;;
2111;SDS011;1062;52.538;13.400;2023-08-20T12:08:08;4.30;;;2.63;;
2111;SDS011;1062;52.538;13.400;2023-08-20T12:10:41;3.57;;;3.20;;
2111;SDS011;1062;52.538;13.400;2023-08-20T12:13:08;2.50;;;2.30;;
2111;SDS011;1062;52.538;13.400;2023-08-20T12:15:33;2.50;;;2.30;;
2111;SDS011;1062;52.538;13.400;2023-08-20T12:18:05;5.17;;;2.77;;
2111;SDS011;1062;52.538;13.400;2023-08-20T12:20:31;3.70;;;2.27;;
2111;SDS011;1062;52.538;13.400;2023-08-20T12:22:59;2.10;;;1.90;;
2111;SDS011;1062;52.538;13.400;2023-08-20T12:25:30;2.30;;;2.10;;
2111;SDS011;1062;52.538;13.400;2023-08-20T12:27:58;2.23;;;2.03;;
2111;SDS011;1062;52.538;13.400;2023-08-20T12:30:24;2.10;;;1.90;;
2111;SDS011;1062;52.538;13.400;2023-08-20T12:32:50;3.13;;;2.93;;
2111;SDS011;1062;52.538;13.400;2023-08-20T12:35:15;3.10;;;2.33;;
2111;SDS011;1062;52.538;13.400;2023-08-20T12:37:41;2.57;;;2.37;;
2111;SDS011;1062;52.538;13.400;2023-08-20T12:40:07;3.90;;;2.00;;
2111;SDS011;1062;52.538;13.400;2023-08-20T12:42:35;1.97;;;1.80;;
2111;SDS011;1062;52.538;13.400;2023-08-20T12:45:03;2.40;;;2.20;;
2111;SDS011;1062;52.538;13.400;2023-08-20T12:47:30;2.30;;;2.10;;
2111;SDS011;1062;52.538;13.400;2023-08-20T12:49:56;2.67;;;2.47;;
2111;SDS011;1062;52.538;13.400;2023-08-20T12:52:22;5.80;;;2.07;;
2111;SDS011;1062;52.538;13.400;2023-08-20T12:54:47;1.90;;;1.80;;
2111;SDS011;1062;52.538;13.400;2023-08-20T12:57:13;2.30;;;2.10;;
2111;SDS011;1062;52.538;13.400;2023-08-20T12:59:38;2.33;;;2.00;;
2111;SDS011;1062;52.538;13.400;2023-08-20T13:02:04;2.90;;;1.70;;
2111;SDS011;1062;52.538;13.400;2023-08-20T13:04:30;1.63;;;1.53;;
2111;SDS011;1062;52.538;13.400;2023-08-20T13:06:56;1.57;;;1.47;;
2111;SDS011;1062;52.538;13.400;2023-08-20T13:09:22;1.97;;;1.87;;
2111;SDS011;1062;52.538;13.400;2023-08-20T13:11:48;2.67;;;2.20;;
2111;SDS011;1062;52.538;13.400;2023-08-20T13:14:16;2.33;;;1.73;;
2111;SDS011;1062;52.538;13.400;2023-08-20T13:16:42;1.93;;;1.63;;
2111;SDS011;1062;52.538;13.400;2023-08-20T13:19:08;2.23;;;1.80;;
2111;SDS011;1062;52.538;13.400;2023-08-20T13:21:34;2.60;;;1.70;;
2111;SDS011;1062;52.538;13.400;2023-08-20T13:23:59;2.63;;;1.80;;
2111;SDS011;1062;52.538;13.400;2023-08-20T13:26:25;1.90;;;1.80;;
2111;SDS011;1062;52.538;13.400;2023-08-20T13:28:50;1.77;;;1.67;;
2111;SDS011;1062;52.538;13.400;2023-08-20T13:31:16;2.87;;;1.83;;
2111;SDS011;1062;52.538;13.400;2023-08-20T13:33:42;1.50;;;1.30;;
2111;SDS011;1062;52.538;13.400;2023-08-20T13:36:07;3.60;;;1.57;;
2111;SDS011;1062;52.538;13.400;2023-08-20T13:38:33;2.03;;;1.83;;
2111;SDS011;1062;52.538;13.400;2023-08-20T13:40:59;2.03;;;1.70;;
2111;SDS011;1062;52.538;13.400;2023-08-20T13:43:25;1.40;;;1.30;;
2111;SDS011;1062;52.538;13.400;2023-08-20T13:45:50;2.40;;;1.13;;
2111;SDS011;1062;52.538;13.400;2023-08-20T13:48:16;1.60;;;1.50;;
2111;SDS011;1062;52.538;13.400;2023-08-20T13:50:41;2.07;;;1.97;;
2111;SDS011;1062;52.538;13.400;2023-08-20T13:53:07;2.03;;;1.67;;
2111;SDS011;1062;52.538;13.400;2023-08-20T13:55:33;2.03;;;1.70;;
2111;SDS011;1062;52.538;13.400;2023-08-20T13:57:59;2.13;;;1.60;;
2111;SDS011;1062;52.538;13.400;2023-08-20T14:00:24;3.00;;;1.67;;
2111;SDS011;1062;52.538;13.400;2023-08-20T14:02:50;1.93;;;1.70;;
2111;SDS011;1062;52.538;13.400;2023-08-20T14:05:16;2.50;;;1.90;;
2111;SDS011;1062;52.538;13.400;2023-08-20T14:07:41;2.23;;;1.53;;
2111;SDS011;1062;52.538;13.400;2023-08-20T14:10:07;2.17;;;1.97;;
2111;SDS011;1062;52.538;13.400;2023-08-20T14:12:33;2.90;;;1.50;;
2111;SDS011;1062;52.538;13.400;2023-08-20T14:14:59;1.37;;;1.13;;
2111;SDS011;1062;52.538;13.400;2023-08-20T14:17:25;3.57;;;1.50;;
2111;SDS011;1062;52.538;13.400;2023-08-20T14:19:51;1.77;;;1.43;;
2111;SDS011;1062;52.538;13.400;2023-08-20T14:22:16;2.87;;;1.30;;
2111;SDS011;1062;52.538;13.400;2023-08-20T14:24:42;1.60;;;1.50;;
2111;SDS011;1062;52.538;13.400;2023-08-20T14:27:08;1.60;;;1.50;;
2111;SDS011;1062;52.538;13.400;2023-08-20T14:29:34;2.10;;;1.60;;
2111;SDS011;1062;52.538;13.400;2023-08-20T14:32:00;1.30;;;1.13;;
2111;SDS011;1062;52.538;13.400;2023-08-20T14:34:26;1.40;;;1.20;;
2111;SDS011;1062;52.538;13.400;2023-08-20T14:36:51;3.07;;;1.50;;
2111;SDS011;1062;52.538;13.400;2023-08-20T14:39:17;1.60;;;1.13;;
2111;SDS011;1062;52.538;13.400;2023-08-20T14:41:42;1.70;;;1.27;;
2111;SDS011;1062;52.538;13.400;2023-08-20T14:44:08;2.70;;;1.53;;
2111;SDS011;1062;52.538;13.400;2023-08-20T14:46:34;1.87;;;1.30;;
2111;SDS011;1062;52.538;13.400;2023-08-20T14:48:59;1.83;;;1.33;;
2111;SDS011;1062;52.538;13.400;2023-08-20T14:51:25;1.27;;;1.17;;
2111;SDS011;1062;52.538;13.400;2023-08-20T14:53:51;1.33;;;1.07;;
2111;SDS011;1062;52.538;13.400;2023-08-20T14:56:16;2.60;;;1.80;;
2111;SDS011;1062;52.538;13.400;2023-08-20T14:58:42;2.20;;;1.40;;
2111;SDS011;1062;52.538;13.400;2023-08-20T15:01:08;3.13;;;1.63;;
2111;SDS011;1062;52.538;13.400;2023-08-20T15:03:33;2.20;;;1.47;;
2111;SDS011;1062;52.538;13.400;2023-08-20T15:05:59;1.47;;;1.37;;
2111;SDS011;1062;52.538;13.400;2023-08-20T15:08:24;2.50;;;1.93;;
2111;SDS011;1062;52.538;13.400;2023-08-20T15:10:57;2.43;;;1.50;;
2111;SDS011;1062;52.538;13.400;2023-08-20T15:13:32;5.70;;;1.37;;
2111;SDS011;1062;52.538;13.400;2023-08-20T15:15:58;2.60;;;1.30;;
2111;SDS011;1062;52.538;13.400;2023-08-20T15:18:24;1.40;;;1.30;;
2111;SDS011;1062;52.538;13.400;2023-08-20T15:20:53;4.60;;;1.27;;
2111;SDS011;1062;52.538;13.400;2023-08-20T15:23:22;1.73;;;1.40;;
2111;SDS011;1062;52.538;13.400;2023-08-20T15:25:50;2.80;;;1.53;;
2111;SDS011;1062;52.538;13.400;2023-08-20T15:28:18;3.33;;;1.30;;
2111;SDS011;1062;52.538;13.400;2023-08-20T15:30:44;1.03;;;0.93;;
2111;SDS011;1062;52.538;13.400;2023-08-20T15:35:37;1.70;;;1.20;;
2111;SDS011;1062;52.538;13.400;2023-08-20T15:38:03;1.60;;;1.50;;
2111;SDS011;1062;52.538;13.400;2023-08-20T15:40:28;4.23;;;1.50;;
2111;SDS011;1062;52.538;13.400;2023-08-20T15:42:54;2.63;;;1.30;;
2111;SDS011;1062;52.538;13.400;2023-08-20T15:45:20;2.73;;;1.20;;
2111;SDS011;1062;52.538;13.400;2023-08-20T15:47:45;3.53;;;1.90;;
2111;SDS011;1062;52.538;13.400;2023-08-20T15:50:11;2.63;;;2.10;;
2111;SDS011;1062;52.538;13.400;2023-08-20T15:52:37;5.43;;;4.70;;
2111;SDS011;1062;52.538;13.400;2023-08-20T15:55:03;2.87;;;2.57;;
2111;SDS011;1062;52.538;13.400;2023-08-20T15:57:29;1.93;;;1.80;;
2111;SDS011;1062;52.538;13.400;2023-08-20T15:59:55;6.50;;;4.90;;